Moriarty, New Mexico
Current Conditions -  °F | °C
As of 11:55 AM on Monday 20 Oct 2014 (Local Time) from K0E0 Reporting Station
Scattered Clouds Scattered Clouds  
Wind Chill: 70°   Ceiling: Unl
Heat Index: 70°   Visibility: 10mi
Dew Point: 37°   Wind: 8mph
Humidity: 30%   Direction: 150°SSE
Pressure: 30.22"   Gusts: NA
Location:  34.99°N, 106.05°W
Report Text: K0E0 201755Z AUTO 15007KT 10SM SCT060 21/03 A3022 RMK AO2 T02110030 10219 20000
Loading
Personal Weather Stations






























Interactive Weather Map
Tropical Storm Tracking
New forecast layout! Learn more

10-Day Weather Forecast

Advertisements
Track Severe Weather on mobile